Stehekin, WA (98852)

12:37 AM PDT on July 24, 2016 (GMT -0700)
Peasant Pharms | | Change Station

Elev 1850 ft 48.50 °N, 120.26 °W | Updated 34 seconds ago

Clear
Clear
64.4 °F
Feels Like 64.4 °F
N
3.6
Wind Variable Wind from NE
Gusts 8.3 mph

Today
High -- | Low -- °F
--% Chance of Precip.
Yesterday
High -- | Low -- °F
Precip. -- in
Pressure 30.07 in
Visibility 10.0 miles
Clouds Clear
Dew Point 43 °F
Humidity 46%
Rainfall 0.00 in
Snow Depth Not available.
5:28 AM 8:49 PM
Waning Gibbous, 78% visible
METAR KOMK 240653Z AUTO 31007KT 10SM CLR 18/08 A3009 RMK AO2 SLP183 T01780083
Pressure 30.07 in
Visibility 10.0 miles
Clouds Clear
Dew Point 43 °F
Humidity 46%
Rainfall 0.00 in
Snow Depth Not available.
5:28 AM 8:49 PM
Waning Gibbous, 78% visible
METAR KOMK 240653Z AUTO 31007KT 10SM CLR 18/08 A3009 RMK AO2 SLP183 T01780083

10-Day Weather Forecast

Almanac

Astronomy

Jul. 24, 2016 Rise Set
Actual Time
Civil Twilight
Nautical Twilight
Astronomical Twilight
Moon
Length of Visible Light
Length of Day
Tomorrow will be .
, % of the Moon is Illuminated

Today's Extremes

State Highs State Lows

Community

WunderPhotos

Upload Photos

1,927,041 photos uploaded!

WunderBlog® & News

Nearby

Air Quality

  Air Quality AQ Index Pollutant
Not available.

Snow Depth

Station Depth Elevation

Earthquake Activity

City Distance Mag. Time & Date
Minimum magnitude displayed is 2.5.

Coastal Water Temperatures

Place Temperature

Stations

Nearby Weather Stations

Station Location Temp. Windchill Dew Point Humidity Wind Precip. Elev Updated Type
                   

Watches & Warnings

There are currently no watches in effect.